createdAt,value
2023-09-29T00:00:33.535Z,10.21
2023-09-29T00:00:50.052Z,10.10
2023-09-29T00:00:59.996Z,9.946
2023-09-29T00:01:33.579Z,10.20
2023-09-29T00:01:50.044Z,10.12
2023-09-29T00:01:59.977Z,9.944
2023-09-29T00:02:33.592Z,10.21
2023-09-29T00:02:50.092Z,10.14
2023-09-29T00:03:00.078Z,9.947
2023-09-29T00:03:33.705Z,10.22
2023-09-29T00:03:50.203Z,10.14
2023-09-29T00:04:33.598Z,10.22
2023-09-29T00:04:50.070Z,10.13
2023-09-29T00:05:33.596Z,10.21
2023-09-29T00:05:50.108Z,10.12
2023-09-29T00:06:33.565Z,10.23
2023-09-29T00:06:50.092Z,10.11
2023-09-29T00:07:33.575Z,10.13
2023-09-29T00:07:50.105Z,10.13
2023-09-29T00:08:33.621Z,10.13
2023-09-29T00:08:50.155Z,10.12
2023-09-29T00:09:33.612Z,10.11
2023-09-29T00:09:50.108Z,10.12
2023-09-29T00:10:33.620Z,10.13
2023-09-29T00:10:50.120Z,10.14
2023-09-29T00:11:33.671Z,10.13
2023-09-29T00:11:50.162Z,10.15
2023-09-29T00:12:33.638Z,10.10
2023-09-29T00:12:50.152Z,10.12
2023-09-29T00:13:33.630Z,10.13
2023-09-29T00:13:50.143Z,10.09
2023-09-29T00:14:33.672Z,10.12
2023-09-29T00:14:50.188Z,10.10
2023-09-29T00:15:33.645Z,10.08
2023-09-29T00:15:50.157Z,10.09
2023-09-29T00:16:50.177Z,10.08
2023-09-29T00:17:50.265Z,10.11
2023-09-29T00:18:00.192Z,9.899
2023-09-29T00:18:50.206Z,10.08
2023-09-29T00:19:50.216Z,10.00
2023-09-29T00:20:50.241Z,9.945
2023-09-29T00:21:50.230Z,9.929
2023-09-29T00:22:50.243Z,9.940
2023-09-29T00:23:50.280Z,9.933
2023-09-29T00:24:50.257Z,9.930
2023-09-29T00:25:00.159Z,9.910
2023-09-29T00:26:00.177Z,9.891
2023-09-29T00:26:50.274Z,9.925
2023-09-29T00:27:00.231Z,9.904
2023-09-29T00:27:50.274Z,9.941
2023-09-29T00:28:00.160Z,9.891
2023-09-29T00:28:50.286Z,9.922
2023-09-29T00:29:50.310Z,9.922
2023-09-29T00:30:50.309Z,9.930
2023-09-29T00:31:50.402Z,9.889
2023-09-29T00:32:50.399Z,9.889
2023-09-29T00:33:50.335Z,9.897
2023-09-29T00:34:50.346Z,9.897
2023-09-29T00:35:50.397Z,9.897
2023-09-29T00:36:50.351Z,9.889
2023-09-29T00:37:50.370Z,9.918
2023-09-29T00:38:50.375Z,9.894
2023-09-29T00:39:50.365Z,9.908
2023-09-29T00:40:50.403Z,9.941
2023-09-29T00:41:50.479Z,9.924
2023-09-29T00:42:00.332Z,9.862
2023-09-29T00:42:50.410Z,9.886
2023-09-29T00:43:00.287Z,9.917
2023-09-29T00:43:50.423Z,9.878
2023-09-29T00:44:00.271Z,9.917
2023-09-29T00:44:50.453Z,9.886
2023-09-29T00:45:00.314Z,9.904
2023-09-29T00:45:50.456Z,9.875
2023-09-29T00:46:00.329Z,9.920
2023-09-29T00:46:50.435Z,9.886
2023-09-29T00:47:00.333Z,9.904
2023-09-29T00:47:50.531Z,9.886
2023-09-29T00:48:00.423Z,9.925
2023-09-29T00:48:50.449Z,9.894
2023-09-29T00:49:00.363Z,9.912
2023-09-29T00:49:50.455Z,9.902
2023-09-29T00:50:00.371Z,9.920
2023-09-29T00:50:50.509Z,9.897
2023-09-29T00:51:00.435Z,9.830
2023-09-29T00:51:50.456Z,9.902
2023-09-29T00:52:00.395Z,9.849
2023-09-29T00:52:50.495Z,9.894
2023-09-29T00:53:00.383Z,9.833
2023-09-29T00:53:50.502Z,9.886
2023-09-29T00:54:00.419Z,9.807
2023-09-29T00:54:50.503Z,9.894
2023-09-29T00:55:00.392Z,9.807
2023-09-29T00:55:50.531Z,9.868
2023-09-29T00:56:00.397Z,9.796
2023-09-29T00:56:50.586Z,9.860
2023-09-29T00:57:00.428Z,9.810
2023-09-29T00:57:50.545Z,9.860
2023-09-29T00:58:00.546Z,9.810
2023-09-29T00:58:50.547Z,9.876
2023-09-29T00:59:00.427Z,9.750
2023-09-29T00:59:50.618Z,9.865
2023-09-29T01:00:00.539Z,9.752
2023-09-29T01:00:50.579Z,9.873
2023-09-29T01:01:00.512Z,9.760
2023-09-29T01:01:50.567Z,9.873
2023-09-29T01:02:00.466Z,9.766
2023-09-29T01:02:50.782Z,9.865
2023-09-29T01:03:00.617Z,9.807
2023-09-29T01:04:00.637Z,9.807
2023-09-29T01:05:00.498Z,9.807
2023-09-29T01:06:00.526Z,9.799
2023-09-29T01:13:34.067Z,9.815
2023-09-29T01:14:34.093Z,9.808
2023-09-29T01:15:34.075Z,9.803
2023-09-29T01:16:34.091Z,9.803
2023-09-29T01:17:34.165Z,9.803
2023-09-29T01:18:00.634Z,9.839
2023-09-29T01:18:34.211Z,9.843
2023-09-29T01:19:00.610Z,9.854
2023-09-29T01:19:34.142Z,9.819
2023-09-29T01:20:00.625Z,9.858
2023-09-29T01:20:34.155Z,9.835
2023-09-29T01:21:00.639Z,9.880
2023-09-29T01:21:34.170Z,9.836
2023-09-29T01:22:00.637Z,9.858
2023-09-29T01:22:34.194Z,9.822
2023-09-29T01:23:00.650Z,9.858
2023-09-29T01:23:34.230Z,9.853
2023-09-29T01:24:00.768Z,9.880
2023-09-29T01:24:34.206Z,9.836
2023-09-29T01:25:00.685Z,9.858
2023-09-29T01:26:00.693Z,9.874
2023-09-29T01:27:00.799Z,9.855
2023-09-29T01:28:00.717Z,9.843
2023-09-29T01:29:00.731Z,9.866
2023-09-29T01:30:00.768Z,9.851
2023-09-29T01:31:00.776Z,9.859
2023-09-29T01:32:00.746Z,9.851
2023-09-29T01:33:01.336Z,9.854
2023-09-29T01:42:34.346Z,9.854
2023-09-29T01:43:34.349Z,9.851
2023-09-29T01:44:00.869Z,9.742
2023-09-29T01:44:34.440Z,9.860
2023-09-29T01:45:00.964Z,9.734
2023-09-29T01:45:34.425Z,9.852
2023-09-29T01:46:00.908Z,9.739
2023-09-29T01:47:00.899Z,9.750
2023-09-29T01:47:51.069Z,9.837
2023-09-29T01:48:00.999Z,9.736
2023-09-29T01:48:51.064Z,9.821
2023-09-29T01:49:01.604Z,9.731
2023-09-29T01:49:50.876Z,9.821
2023-09-29T01:50:00.914Z,9.728
2023-09-29T01:50:50.925Z,9.810
2023-09-29T01:51:00.957Z,9.720
2023-09-29T01:51:50.907Z,9.810
2023-09-29T01:52:00.932Z,9.720
2023-09-29T01:52:51.012Z,9.826
2023-09-29T01:53:00.948Z,9.728
2023-09-29T01:53:50.971Z,9.837
2023-09-29T01:54:00.991Z,9.760
2023-09-29T01:54:50.952Z,9.821
2023-09-29T01:55:00.972Z,9.772
2023-09-29T01:55:50.958Z,9.832
2023-09-29T01:56:00.979Z,9.772
2023-09-29T01:56:51.020Z,9.864
2023-09-29T01:57:01.023Z,9.783
2023-09-29T01:57:50.975Z,9.840
2023-09-29T01:58:00.992Z,9.789
2023-09-29T01:58:50.968Z,9.841
2023-09-29T01:59:00.992Z,9.773
2023-09-29T01:59:34.509Z,9.806
2023-09-29T01:59:51.019Z,9.833
2023-09-29T02:00:34.537Z,9.773
2023-09-29T02:00:51.025Z,9.825
2023-09-29T02:01:34.509Z,9.765
2023-09-29T02:01:50.979Z,9.815
2023-09-29T02:02:34.690Z,9.765
2023-09-29T02:02:51.066Z,9.819
2023-09-29T02:03:34.618Z,9.776
2023-09-29T02:04:34.543Z,9.776
2023-09-29T02:05:34.613Z,9.776
2023-09-29T02:06:34.546Z,9.792
2023-09-29T02:07:34.546Z,9.779
2023-09-29T02:08:34.603Z,9.733
2023-09-29T02:09:34.579Z,9.736
2023-09-29T02:10:34.591Z,9.733
2023-09-29T02:10:51.049Z,9.717
2023-09-29T02:11:34.638Z,9.725
2023-09-29T02:11:51.087Z,9.718
2023-09-29T02:12:34.619Z,9.755
2023-09-29T02:12:51.053Z,9.714
2023-09-29T02:13:34.631Z,9.725
2023-09-29T02:13:51.058Z,9.733
2023-09-29T02:14:34.706Z,9.741
2023-09-29T02:15:01.163Z,9.779
2023-09-29T02:15:34.689Z,9.733
2023-09-29T02:16:01.192Z,9.750
2023-09-29T02:16:34.668Z,9.749
2023-09-29T02:17:01.173Z,9.750
2023-09-29T02:17:34.760Z,9.722
2023-09-29T02:18:01.274Z,9.750
2023-09-29T02:19:01.299Z,9.739
2023-09-29T02:20:01.214Z,9.752
2023-09-29T02:21:01.234Z,9.747
2023-09-29T02:22:01.222Z,9.747
2023-09-29T02:23:01.556Z,9.747
2023-09-29T02:24:01.285Z,9.739
2023-09-29T02:25:01.234Z,9.732
2023-09-29T02:26:01.240Z,9.744
2023-09-29T02:27:01.259Z,9.751
2023-09-29T02:27:34.754Z,9.740
2023-09-29T02:28:01.786Z,9.755
2023-09-29T02:28:34.764Z,9.748
2023-09-29T02:29:01.272Z,9.767
2023-09-29T02:29:34.822Z,9.748
2023-09-29T02:30:01.304Z,9.751
2023-09-29T02:30:34.777Z,9.756
2023-09-29T02:31:01.308Z,9.751
2023-09-29T02:31:34.782Z,9.718
2023-09-29T02:32:01.303Z,9.739
2023-09-29T02:32:34.885Z,9.723
2023-09-29T02:33:01.423Z,9.471
2023-09-29T02:33:34.834Z,9.723
2023-09-29T02:34:01.330Z,9.464
2023-09-29T02:34:36.654Z,9.723
2023-09-29T02:35:01.338Z,9.479
2023-09-29T02:35:34.826Z,9.723
2023-09-29T02:36:01.380Z,9.464
2023-09-29T02:36:34.810Z,9.726
2023-09-29T02:37:01.364Z,9.479
2023-09-29T02:37:34.821Z,9.710
2023-09-29T02:38:34.848Z,9.726
2023-09-29T02:39:34.849Z,9.731
2023-09-29T02:40:34.859Z,9.726
2023-09-29T02:41:01.374Z,9.468
2023-09-29T02:41:34.881Z,9.740
2023-09-29T02:42:01.453Z,9.468
2023-09-29T02:42:34.934Z,9.714
2023-09-29T02:43:01.389Z,9.468
2023-09-29T02:43:34.893Z,9.708
2023-09-29T02:44:01.403Z,9.468
2023-09-29T02:44:34.923Z,9.708
2023-09-29T02:45:01.454Z,9.468
2023-09-29T02:52:51.371Z,9.704
2023-09-29T02:53:51.464Z,9.712
2023-09-29T02:54:51.403Z,9.722
2023-09-29T02:55:51.398Z,9.738
2023-09-29T02:56:51.542Z,9.722
2023-09-29T02:57:35.137Z,9.737
2023-09-29T02:58:35.047Z,9.734
2023-09-29T02:59:35.242Z,9.726
2023-09-29T03:00:35.082Z,9.720
2023-09-29T03:01:35.070Z,9.737
2023-09-29T03:02:35.125Z,9.765
2023-09-29T03:03:01.799Z,9.473
2023-09-29T03:03:35.248Z,9.751
2023-09-29T03:04:01.810Z,9.494
2023-09-29T03:04:35.126Z,9.741
2023-09-29T03:05:01.604Z,9.481
2023-09-29T03:05:35.150Z,9.727
2023-09-29T03:06:35.137Z,9.723
2023-09-29T03:07:35.150Z,9.720
2023-09-29T03:08:35.186Z,9.717
2023-09-29T03:09:35.223Z,9.709
2023-09-29T03:10:35.154Z,9.717
2023-09-29T03:11:35.203Z,9.717
2023-09-29T03:13:35.175Z,9.709
2023-09-29T03:14:35.204Z,9.723
2023-09-29T03:15:35.190Z,9.715
2023-09-29T03:16:35.228Z,9.723
2023-09-29T03:17:35.311Z,9.705
2023-09-29T03:18:35.383Z,9.705
2023-09-29T03:19:35.236Z,9.705
2023-09-29T03:19:51.628Z,9.676
2023-09-29T03:20:35.266Z,9.683
2023-09-29T03:20:51.662Z,9.673
2023-09-29T03:21:35.259Z,9.667
2023-09-29T03:21:51.633Z,9.659
2023-09-29T03:22:35.268Z,9.683
2023-09-29T03:22:51.652Z,9.659
2023-09-29T03:23:35.312Z,9.683
2023-09-29T03:23:51.670Z,9.659
2023-09-29T03:24:51.681Z,9.651
2023-09-29T03:25:51.696Z,9.630
2023-09-29T03:26:51.740Z,9.645
2023-09-29T03:27:51.756Z,9.648
2023-09-29T03:28:51.754Z,9.640
2023-09-29T03:29:51.880Z,9.648
2023-09-29T03:30:51.775Z,9.653
2023-09-29T03:31:51.760Z,9.637
2023-09-29T03:32:51.814Z,9.653
2023-09-29T03:33:51.760Z,9.645
2023-09-29T03:34:51.774Z,9.623
2023-09-29T03:35:51.823Z,9.631
2023-09-29T03:36:51.811Z,9.631
2023-09-29T03:37:51.818Z,9.645
2023-09-29T03:38:51.847Z,9.638
2023-09-29T03:39:01.958Z,9.727
2023-09-29T03:39:51.850Z,9.653
2023-09-29T03:40:01.926Z,9.735
2023-09-29T03:40:51.847Z,9.687
2023-09-29T03:41:01.929Z,9.735
2023-09-29T03:41:51.929Z,9.665
2023-09-29T03:42:01.997Z,9.727
2023-09-29T03:42:51.877Z,9.665
2023-09-29T03:43:01.955Z,9.739
2023-09-29T03:43:51.881Z,9.673
2023-09-29T03:44:01.960Z,9.731
2023-09-29T03:45:02.080Z,9.731
2023-09-29T03:51:35.532Z,9.685
2023-09-29T03:52:35.535Z,9.682
2023-09-29T03:53:35.568Z,9.682
2023-09-29T03:54:35.552Z,9.682
2023-09-29T03:55:35.578Z,9.663
2023-09-29T03:56:35.620Z,9.655
2023-09-29T03:57:35.595Z,9.674
2023-09-29T03:58:35.604Z,9.673
2023-09-29T03:59:35.628Z,9.673
2023-09-29T04:00:35.643Z,9.678
2023-09-29T04:01:35.644Z,9.678
2023-09-29T04:02:35.722Z,9.678
2023-09-29T04:03:35.719Z,9.678
2023-09-29T04:04:35.721Z,9.681
2023-09-29T04:05:35.723Z,9.677
2023-09-29T04:06:35.722Z,9.692
2023-09-29T04:07:35.684Z,9.684
2023-09-29T04:08:35.710Z,9.680
2023-09-29T04:09:35.707Z,9.680
2023-09-29T04:10:35.733Z,9.688
2023-09-29T04:11:35.764Z,9.680
2023-09-29T04:12:35.753Z,9.695
2023-09-29T04:13:35.747Z,9.666
2023-09-29T04:14:35.824Z,9.649
2023-09-29T04:15:35.767Z,9.657
2023-09-29T04:16:35.777Z,9.637
2023-09-29T04:17:35.831Z,9.645
2023-09-29T04:20:52.247Z,9.855
2023-09-29T04:21:52.202Z,9.834
2023-09-29T04:22:02.252Z,9.826
2023-09-29T04:22:52.206Z,9.850
2023-09-29T04:23:02.253Z,9.856
2023-09-29T04:23:52.208Z,9.869
2023-09-29T04:24:02.316Z,9.872
2023-09-29T04:24:52.217Z,9.869
2023-09-29T04:25:02.263Z,9.888
2023-09-29T04:25:52.225Z,9.838
2023-09-29T04:26:02.278Z,9.883
2023-09-29T04:26:52.277Z,9.846
2023-09-29T04:27:02.297Z,9.883
2023-09-29T04:27:52.254Z,9.830
2023-09-29T04:28:02.299Z,9.888
2023-09-29T04:28:52.276Z,9.854
2023-09-29T04:29:04.502Z,9.880
2023-09-29T04:29:52.321Z,9.846
2023-09-29T04:30:02.357Z,9.886
2023-09-29T04:30:52.292Z,9.854
2023-09-29T04:31:52.303Z,9.875
2023-09-29T04:32:52.378Z,9.867
2023-09-29T04:33:52.337Z,9.842
2023-09-29T04:36:52.329Z,9.854
2023-09-29T04:37:52.319Z,9.846
2023-09-29T04:38:52.353Z,9.838
2023-09-29T04:39:52.368Z,9.861
2023-09-29T04:40:52.373Z,9.861
2023-09-29T04:41:52.390Z,9.854
2023-09-29T04:42:52.388Z,9.851
2023-09-29T04:43:52.400Z,9.851
2023-09-29T04:44:52.482Z,9.843
2023-09-29T04:45:52.412Z,9.835
2023-09-29T04:46:52.458Z,9.854
2023-09-29T04:47:52.518Z,9.843
2023-09-29T04:48:52.421Z,9.819
2023-09-29T04:49:52.425Z,9.835
2023-09-29T04:50:52.491Z,9.824
2023-09-29T04:51:52.471Z,9.812
2023-09-29T04:52:52.463Z,9.836
2023-09-29T04:53:52.490Z,9.875
2023-09-29T04:54:02.504Z,9.635
2023-09-29T04:54:52.493Z,9.929
2023-09-29T04:55:02.492Z,9.612
2023-09-29T04:55:52.503Z,9.905
2023-09-29T04:56:52.577Z,9.929
2023-09-29T04:57:52.525Z,9.904
2023-09-29T04:58:52.528Z,9.896
2023-09-29T04:59:02.536Z,9.887
2023-09-29T04:59:52.555Z,9.912
2023-09-29T05:00:52.567Z,10.00
2023-09-29T05:01:52.543Z,10.04
2023-09-29T05:02:36.156Z,9.989
2023-09-29T05:02:52.656Z,10.02
2023-09-29T05:03:36.316Z,9.981
2023-09-29T05:03:52.815Z,10.02
2023-09-29T05:04:36.181Z,10.01
2023-09-29T05:04:52.573Z,10.01
2023-09-29T05:05:36.201Z,9.997
2023-09-29T05:05:52.640Z,10.01
2023-09-29T05:06:36.158Z,9.979
2023-09-29T05:06:52.604Z,10.02
2023-09-29T05:07:02.613Z,9.925
2023-09-29T05:07:36.179Z,10.03
2023-09-29T05:07:52.614Z,10.01
2023-09-29T05:08:02.608Z,9.917
2023-09-29T05:08:52.752Z,10.04
2023-09-29T05:09:02.663Z,9.925
2023-09-29T05:09:52.636Z,10.02
2023-09-29T05:10:02.606Z,9.925
2023-09-29T05:10:52.636Z,10.03
2023-09-29T05:11:02.616Z,9.893
2023-09-29T05:11:52.681Z,10.01
2023-09-29T05:12:02.676Z,9.893
2023-09-29T05:12:52.655Z,10.03
2023-09-29T05:13:52.658Z,10.01
2023-09-29T05:14:52.691Z,10.04
2023-09-29T05:15:52.676Z,10.05
2023-09-29T05:20:02.706Z,9.592
2023-09-29T05:21:02.750Z,9.637
2023-09-29T05:22:02.729Z,9.626
2023-09-29T05:23:02.730Z,9.634
2023-09-29T05:24:02.817Z,9.618
2023-09-29T05:25:02.751Z,9.626
2023-09-29T05:26:02.774Z,9.666
2023-09-29T05:27:02.821Z,9.675
2023-09-29T05:28:02.793Z,9.683
2023-09-29T05:29:02.799Z,9.678
2023-09-29T05:29:52.796Z,10.14
2023-09-29T05:30:02.871Z,9.700
2023-09-29T05:31:02.848Z,9.708
2023-09-29T05:32:02.824Z,9.734
2023-09-29T05:34:02.836Z,9.752
2023-09-29T05:35:02.826Z,9.752
2023-09-29T05:36:03.123Z,9.744
2023-09-29T05:37:02.849Z,9.741
2023-09-29T05:42:03.030Z,9.803
2023-09-29T05:54:36.566Z,10.12
2023-09-29T05:55:36.587Z,10.14
2023-09-29T05:56:36.620Z,10.15
2023-09-29T05:57:36.615Z,10.13
2023-09-29T05:58:36.629Z,10.13
2023-09-29T05:59:36.734Z,10.17
2023-09-29T06:00:36.658Z,10.16
2023-09-29T06:01:36.674Z,10.20
2023-09-29T06:02:36.794Z,10.18
2023-09-29T06:03:36.794Z,10.19
2023-09-29T06:04:36.713Z,10.18
2023-09-29T06:05:03.122Z,10.19
2023-09-29T06:05:36.809Z,10.17
2023-09-29T06:06:03.193Z,10.19
2023-09-29T06:06:36.700Z,10.16
2023-09-29T06:07:03.146Z,10.19
2023-09-29T06:07:36.706Z,10.15
2023-09-29T06:08:03.167Z,10.18
2023-09-29T06:08:48.282Z,10.16
2023-09-29T06:09:36.810Z,10.16
2023-09-29T06:10:36.767Z,10.16
2023-09-29T06:11:36.772Z,10.17
2023-09-29T06:12:36.776Z,10.17
2023-09-29T06:13:36.780Z,10.18
2023-09-29T06:13:53.071Z,10.67
2023-09-29T06:14:36.835Z,10.18
2023-09-29T06:14:53.093Z,10.68
2023-09-29T06:15:36.816Z,10.21
2023-09-29T06:15:53.074Z,10.42
2023-09-29T06:16:36.858Z,10.18
2023-09-29T06:16:53.147Z,10.40
2023-09-29T06:17:36.878Z,10.21
2023-09-29T06:17:53.191Z,10.40
2023-09-29T06:18:53.145Z,10.40
2023-09-29T06:19:53.133Z,10.42
2023-09-29T06:20:53.175Z,10.41
2023-09-29T06:21:53.143Z,10.43
2023-09-29T06:22:53.147Z,10.43
2023-09-29T06:23:53.171Z,10.40
2023-09-29T06:24:53.160Z,10.44
2023-09-29T06:25:53.163Z,10.45
2023-09-29T06:26:53.183Z,10.44
2023-09-29T06:27:53.177Z,10.44
2023-09-29T06:28:53.178Z,10.47
2023-09-29T06:29:53.209Z,10.47
2023-09-29T06:30:53.272Z,10.48
2023-09-29T06:31:53.228Z,10.44
2023-09-29T06:32:53.305Z,10.43
2023-09-29T06:33:53.495Z,10.43
2023-09-29T06:34:53.251Z,10.43
2023-09-29T06:35:37.056Z,10.24
2023-09-29T06:35:53.265Z,10.43
2023-09-29T06:36:37.026Z,10.25
2023-09-29T06:36:53.256Z,10.43
2023-09-29T06:37:37.041Z,10.25
2023-09-29T06:37:53.262Z,10.43
2023-09-29T06:38:37.084Z,10.25
2023-09-29T06:38:53.358Z,10.44
2023-09-29T06:39:03.472Z,10.70
2023-09-29T06:39:37.054Z,10.24
2023-09-29T06:39:53.265Z,10.45
2023-09-29T06:40:03.414Z,10.70
2023-09-29T06:40:37.069Z,10.26
2023-09-29T06:40:53.268Z,10.69
2023-09-29T06:41:03.419Z,10.70
2023-09-29T06:41:37.089Z,10.26
2023-09-29T06:41:53.349Z,10.70
2023-09-29T06:42:03.459Z,10.70
2023-09-29T06:42:37.081Z,10.25
2023-09-29T06:42:53.307Z,10.71
2023-09-29T06:43:03.450Z,10.69
2023-09-29T06:43:37.086Z,10.24
2023-09-29T06:43:53.371Z,10.71
2023-09-29T06:44:03.463Z,10.72
2023-09-29T06:44:37.105Z,10.26
2023-09-29T06:44:53.332Z,10.73
2023-09-29T06:45:03.486Z,10.69
2023-09-29T06:46:01.163Z,10.76
2023-09-29T06:46:03.541Z,10.69
2023-09-29T06:47:03.513Z,10.69
2023-09-29T06:48:03.628Z,10.73
2023-09-29T06:49:03.535Z,10.74
2023-09-29T06:49:53.335Z,10.79
2023-09-29T06:50:53.387Z,10.78
2023-09-29T06:51:53.376Z,10.80
2023-09-29T06:54:03.565Z,10.75
2023-09-29T06:55:03.543Z,10.93
2023-09-29T06:56:03.563Z,10.93
2023-09-29T06:57:03.653Z,10.92
2023-09-29T06:58:03.594Z,10.93
2023-09-29T06:59:03.603Z,10.94
2023-09-29T07:00:03.657Z,10.93
2023-09-29T07:01:04.125Z,10.94
2023-09-29T07:02:03.670Z,10.95
2023-09-29T07:03:03.720Z,10.95
2023-09-29T07:04:08.375Z,10.96
2023-09-29T07:05:04.504Z,10.97
2023-09-29T07:05:37.279Z,10.35
2023-09-29T07:06:03.685Z,10.96
2023-09-29T07:06:37.273Z,10.35
2023-09-29T07:07:37.277Z,10.35
2023-09-29T07:08:37.294Z,10.40
2023-09-29T07:12:08.876Z,11.22
2023-09-29T07:12:53.565Z,11.21
2023-09-29T07:20:37.380Z,10.47
2023-09-29T07:21:37.369Z,10.47
2023-09-29T07:22:03.788Z,11.15
2023-09-29T07:23:03.805Z,11.14
2023-09-29T07:23:37.402Z,10.50
2023-09-29T07:24:03.864Z,11.13
2023-09-29T07:24:37.402Z,10.50
2023-09-29T07:25:03.857Z,11.12
2023-09-29T07:25:37.401Z,10.51
2023-09-29T07:26:03.857Z,11.17
2023-09-29T07:26:37.455Z,10.48
2023-09-29T07:27:37.427Z,10.49
2023-09-29T07:28:37.438Z,10.49
2023-09-29T07:29:37.480Z,10.49
2023-09-29T07:30:37.536Z,10.49
2023-09-29T07:31:37.460Z,10.44
2023-09-29T07:32:37.571Z,10.57
2023-09-29T07:33:37.560Z,10.56
2023-09-29T07:34:53.761Z,11.38
2023-09-29T07:35:53.781Z,11.36
2023-09-29T07:36:53.768Z,11.36
2023-09-29T07:37:53.780Z,11.55
2023-09-29T07:38:53.813Z,11.65
2023-09-29T07:39:53.794Z,11.65
2023-09-29T07:40:53.788Z,11.65
2023-09-29T07:41:53.820Z,11.64
2023-09-29T07:42:37.558Z,11.17
2023-09-29T07:42:53.807Z,11.67
2023-09-29T07:43:37.570Z,11.20
2023-09-29T07:43:53.819Z,11.68
2023-09-29T07:44:37.653Z,11.23
2023-09-29T07:44:53.879Z,11.68
2023-09-29T07:45:37.586Z,11.22
2023-09-29T07:45:53.842Z,11.69
2023-09-29T07:46:53.895Z,11.69
2023-09-29T07:47:53.919Z,11.69
2023-09-29T07:48:53.991Z,11.69
2023-09-29T07:49:53.899Z,11.70
2023-09-29T07:50:04.061Z,11.43
2023-09-29T07:50:53.925Z,11.75
2023-09-29T07:51:04.105Z,11.45
2023-09-29T07:51:53.919Z,11.77
2023-09-29T07:52:04.099Z,11.48
2023-09-29T07:52:53.918Z,11.76
2023-09-29T07:53:04.370Z,11.50
2023-09-29T07:53:53.950Z,11.76
2023-09-29T07:54:04.124Z,11.52
2023-09-29T07:54:53.931Z,11.74
2023-09-29T07:55:04.126Z,11.50
2023-09-29T07:56:04.127Z,11.50
2023-09-29T07:57:04.238Z,11.53
2023-09-29T07:58:04.131Z,11.54
2023-09-29T07:59:04.144Z,11.50
2023-09-29T08:00:04.193Z,11.50
2023-09-29T08:01:04.173Z,11.55
2023-09-29T08:02:04.206Z,11.56
2023-09-29T08:03:04.327Z,11.53
2023-09-29T08:04:04.406Z,11.54
2023-09-29T08:05:04.226Z,11.52
2023-09-29T08:06:04.291Z,11.47
2023-09-29T08:07:06.113Z,11.46
2023-09-29T08:08:04.254Z,11.48
2023-09-29T08:09:04.294Z,11.49
2023-09-29T08:10:04.266Z,11.47
2023-09-29T08:10:54.080Z,11.99
2023-09-29T08:11:04.266Z,11.46
2023-09-29T08:11:37.824Z,11.42
2023-09-29T08:11:54.124Z,11.97
2023-09-29T08:12:04.282Z,11.45
2023-09-29T08:12:37.803Z,11.41
2023-09-29T08:12:54.115Z,11.95
2023-09-29T08:13:04.303Z,11.47
2023-09-29T08:13:37.820Z,11.41
2023-09-29T08:13:54.120Z,11.96
2023-09-29T08:14:04.292Z,11.46
2023-09-29T08:14:37.857Z,11.39
2023-09-29T08:14:54.151Z,11.97
2023-09-29T08:15:04.350Z,11.47
2023-09-29T08:15:37.827Z,11.39
2023-09-29T08:15:54.137Z,11.95
2023-09-29T08:16:04.327Z,11.46
2023-09-29T08:16:37.882Z,11.40
2023-09-29T08:16:54.197Z,11.95
2023-09-29T08:17:04.339Z,11.49
2023-09-29T08:17:37.936Z,11.40
2023-09-29T08:17:54.273Z,11.97
2023-09-29T08:18:04.402Z,11.46
2023-09-29T08:18:37.976Z,11.41
2023-09-29T08:18:54.342Z,11.97
2023-09-29T08:19:04.356Z,11.47
2023-09-29T08:19:37.843Z,11.38
2023-09-29T08:19:54.170Z,11.97
2023-09-29T08:20:04.365Z,11.48
2023-09-29T08:20:37.884Z,11.41
2023-09-29T08:20:54.186Z,11.97
2023-09-29T08:21:04.428Z,11.44
2023-09-29T08:21:37.883Z,11.38
2023-09-29T08:21:54.176Z,11.97
2023-09-29T08:22:04.378Z,11.43
2023-09-29T08:22:41.096Z,11.38
2023-09-29T08:22:54.211Z,11.97
2023-09-29T08:23:04.379Z,11.49
2023-09-29T08:23:37.912Z,11.40
2023-09-29T08:23:54.235Z,11.96
2023-09-29T08:24:04.461Z,11.49
2023-09-29T08:24:37.921Z,11.41
2023-09-29T08:24:54.220Z,11.97
2023-09-29T08:25:04.388Z,11.45
2023-09-29T08:25:37.927Z,11.41
2023-09-29T08:25:54.226Z,11.97
2023-09-29T08:26:04.404Z,11.46
2023-09-29T08:26:37.942Z,11.40
2023-09-29T08:26:54.249Z,11.98
2023-09-29T08:27:04.423Z,11.48
2023-09-29T08:27:37.952Z,11.40
2023-09-29T08:27:54.244Z,11.98
2023-09-29T08:28:04.431Z,11.46
2023-09-29T08:28:37.954Z,11.08
2023-09-29T08:28:54.388Z,11.97
2023-09-29T08:29:04.433Z,11.47
2023-09-29T08:29:38.026Z,11.08
2023-09-29T08:29:55.874Z,11.96
2023-09-29T08:30:04.513Z,11.46
2023-09-29T08:30:38.053Z,11.08
2023-09-29T08:30:54.478Z,11.97
2023-09-29T08:31:04.606Z,11.49
2023-09-29T08:31:37.952Z,11.09
2023-09-29T08:31:54.344Z,11.97
2023-09-29T08:32:04.457Z,11.49
2023-09-29T08:32:38.058Z,11.07
2023-09-29T08:33:03.110Z,11.94
2023-09-29T08:33:17.687Z,11.46
2023-09-29T08:33:50.344Z,11.07
2023-09-29T08:33:54.390Z,11.97
2023-09-29T08:34:04.525Z,11.47
2023-09-29T08:34:38.107Z,11.08
2023-09-29T08:34:54.395Z,11.95
2023-09-29T08:35:04.483Z,11.48
2023-09-29T08:35:38.079Z,11.06
2023-09-29T08:35:54.377Z,11.97
2023-09-29T08:36:04.525Z,11.48
2023-09-29T08:36:38.032Z,11.08
2023-09-29T08:36:54.328Z,11.96
2023-09-29T08:37:38.042Z,11.08
2023-09-29T08:37:54.340Z,11.95
2023-09-29T08:38:38.068Z,12.06
2023-09-29T08:38:54.410Z,11.96
2023-09-29T08:39:38.065Z,12.08
2023-09-29T08:39:54.365Z,11.93
2023-09-29T08:40:38.079Z,12.09
2023-09-29T08:40:54.373Z,11.96
2023-09-29T08:41:38.101Z,12.07
2023-09-29T08:41:54.504Z,11.95
2023-09-29T08:42:38.303Z,12.07
2023-09-29T08:42:54.391Z,11.98
2023-09-29T08:43:39.999Z,12.07
2023-09-29T08:44:06.109Z,11.98
2023-09-29T08:44:38.135Z,12.10
2023-09-29T08:44:54.698Z,11.96
2023-09-29T08:45:38.152Z,12.11
2023-09-29T08:45:54.412Z,11.97
2023-09-29T08:47:54.585Z,12.01
2023-09-29T08:48:54.703Z,12.00
2023-09-29T08:49:54.444Z,11.98
2023-09-29T08:50:54.484Z,11.99
2023-09-29T08:51:54.470Z,12.00
2023-09-29T08:52:54.632Z,12.01
2023-09-29T08:53:54.550Z,12.05
2023-09-29T08:54:54.502Z,12.07
2023-09-29T08:55:54.527Z,12.04
2023-09-29T08:56:54.553Z,12.05
2023-09-29T08:57:55.069Z,12.04
2023-09-29T08:58:54.815Z,12.04
2023-09-29T08:59:54.588Z,12.04
2023-09-29T09:00:54.539Z,12.06
2023-09-29T09:01:54.567Z,12.07
2023-09-29T09:02:54.635Z,12.05
2023-09-29T09:03:54.986Z,12.07
2023-09-29T09:04:54.622Z,12.05
2023-09-29T09:05:38.351Z,12.15
2023-09-29T09:05:54.652Z,12.07
2023-09-29T09:06:38.343Z,12.13
2023-09-29T09:06:54.598Z,12.08
2023-09-29T09:07:38.357Z,12.13
2023-09-29T09:07:54.607Z,12.06
2023-09-29T09:08:38.419Z,12.15
2023-09-29T09:08:54.641Z,12.07
2023-09-29T09:09:38.376Z,12.14
2023-09-29T09:09:54.622Z,12.08
2023-09-29T09:10:54.628Z,12.10
2023-09-29T09:11:54.649Z,12.08
2023-09-29T09:12:54.628Z,12.08
2023-09-29T09:13:54.761Z,12.12
2023-09-29T09:14:54.694Z,12.13
2023-09-29T09:15:54.662Z,12.12
2023-09-29T09:16:38.480Z,12.19
2023-09-29T09:16:54.725Z,12.10
2023-09-29T09:17:38.560Z,12.21
2023-09-29T09:17:54.794Z,12.10
2023-09-29T09:18:38.559Z,12.22
2023-09-29T09:18:54.865Z,12.11
2023-09-29T09:19:38.495Z,12.21
2023-09-29T09:19:54.711Z,12.11
2023-09-29T09:20:38.516Z,12.21
2023-09-29T09:20:54.765Z,12.13
2023-09-29T09:21:04.931Z,12.36
2023-09-29T09:21:38.486Z,12.22
2023-09-29T09:22:04.902Z,12.36
2023-09-29T09:22:45.786Z,12.18
2023-09-29T09:23:04.907Z,12.40
2023-09-29T09:24:04.934Z,12.39
2023-09-29T09:25:04.922Z,12.42
2023-09-29T09:27:38.515Z,12.23
2023-09-29T09:28:38.534Z,12.22
2023-09-29T09:29:38.585Z,12.25
2023-09-29T09:30:38.601Z,12.27
2023-09-29T09:31:38.570Z,12.27
2023-09-29T09:32:38.600Z,12.27
2023-09-29T09:33:38.591Z,12.25
2023-09-29T09:34:38.605Z,12.26
2023-09-29T09:35:38.936Z,12.24
2023-09-29T09:36:38.608Z,12.25
2023-09-29T09:37:38.620Z,12.25
2023-09-29T09:38:38.687Z,12.23
2023-09-29T09:38:54.943Z,12.18
2023-09-29T09:39:38.695Z,12.25
2023-09-29T09:39:54.922Z,12.69
2023-09-29T09:40:38.630Z,12.26
2023-09-29T09:40:54.848Z,12.68
2023-09-29T09:41:38.733Z,12.27
2023-09-29T09:41:54.967Z,12.69
2023-09-29T09:42:38.674Z,12.25
2023-09-29T09:42:54.956Z,12.69
2023-09-29T09:43:38.680Z,12.25
2023-09-29T09:43:54.993Z,12.70